sensor_id;sensor_type;location;lat;lon;timestamp;pressure;altitude;pressure_sealevel;temperature;humidity
30682;BME280;17439;48.092;11.842;2022-07-09T00:01:35;96498.91;;;15.52;50.79
30682;BME280;17439;48.092;11.842;2022-07-09T00:04:02;96499.22;;;15.50;50.74
30682;BME280;17439;48.092;11.842;2022-07-09T00:06:29;96490.84;;;15.47;50.86
30682;BME280;17439;48.092;11.842;2022-07-09T00:08:55;96491.16;;;15.45;50.93
30682;BME280;17439;48.092;11.842;2022-07-09T00:11:22;96487.44;;;15.41;51.08
30682;BME280;17439;48.092;11.842;2022-07-09T00:13:49;96484.22;;;15.39;51.00
30682;BME280;17439;48.092;11.842;2022-07-09T00:16:15;96491.13;;;15.36;51.20
30682;BME280;17439;48.092;11.842;2022-07-09T00:18:42;96490.66;;;15.34;51.14
30682;BME280;17439;48.092;11.842;2022-07-09T00:21:09;96483.09;;;15.31;51.26
30682;BME280;17439;48.092;11.842;2022-07-09T00:23:35;96479.88;;;15.29;51.29
30682;BME280;17439;48.092;11.842;2022-07-09T00:26:02;96473.09;;;15.27;51.35
30682;BME280;17439;48.092;11.842;2022-07-09T00:28:29;96480.81;;;15.24;51.46
30682;BME280;17439;48.092;11.842;2022-07-09T00:30:56;96481.13;;;15.23;51.54
30682;BME280;17439;48.092;11.842;2022-07-09T00:33:22;96474.34;;;15.20;51.49
30682;BME280;17439;48.092;11.842;2022-07-09T00:35:49;96473.88;;;15.18;51.83
30682;BME280;17439;48.092;11.842;2022-07-09T00:38:16;96471.47;;;15.17;51.73
30682;BME280;17439;48.092;11.842;2022-07-09T00:40:42;96472.88;;;15.14;51.79
30682;BME280;17439;48.092;11.842;2022-07-09T00:43:19;96465.00;;;15.13;53.39
30682;BME280;17439;48.092;11.842;2022-07-09T00:45:47;96466.47;;;15.10;52.07
30682;BME280;17439;48.092;11.842;2022-07-09T00:48:13;96464.03;;;15.09;51.99
30682;BME280;17439;48.092;11.842;2022-07-09T00:50:42;96465.16;;;15.08;52.12
30682;BME280;17439;48.092;11.842;2022-07-09T00:53:09;96467.34;;;14.97;52.54
30682;BME280;17439;48.092;11.842;2022-07-09T00:55:37;96462.25;;;15.04;52.02
30682;BME280;17439;48.092;11.842;2022-07-09T00:58:04;96460.63;;;15.03;52.17
30682;BME280;17439;48.092;11.842;2022-07-09T01:00:33;96462.25;;;15.04;52.59
30682;BME280;17439;48.092;11.842;2022-07-09T01:03:00;96456.00;;;15.03;52.25
30682;BME280;17439;48.092;11.842;2022-07-09T01:05:27;96448.59;;;15.04;52.46
30682;BME280;17439;48.092;11.842;2022-07-09T01:07:57;96445.56;;;15.05;52.71
30682;BME280;17439;48.092;11.842;2022-07-09T01:10:23;96447.97;;;15.07;52.99
30682;BME280;17439;48.092;11.842;2022-07-09T01:12:50;96447.34;;;15.10;53.14
30682;BME280;17439;48.092;11.842;2022-07-09T01:15:17;96443.97;;;15.13;53.12
30682;BME280;17439;48.092;11.842;2022-07-09T01:17:43;96440.31;;;15.18;53.27
30682;BME280;17439;48.092;11.842;2022-07-09T01:20:10;96443.69;;;15.23;53.18
30682;BME280;17439;48.092;11.842;2022-07-09T01:22:37;96439.69;;;15.30;53.35
30682;BME280;17439;48.092;11.842;2022-07-09T01:25:08;96440.03;;;15.37;54.42
30682;BME280;17439;48.092;11.842;2022-07-09T01:27:36;96442.00;;;15.45;53.67
30682;BME280;17439;48.092;11.842;2022-07-09T01:30:04;96434.44;;;15.51;53.60
30682;BME280;17439;48.092;11.842;2022-07-09T01:32:31;96433.97;;;15.57;53.87
30682;BME280;17439;48.092;11.842;2022-07-09T01:34:57;96435.59;;;15.67;53.78
30682;BME280;17439;48.092;11.842;2022-07-09T01:37:24;96430.44;;;15.74;53.54
30682;BME280;17439;48.092;11.842;2022-07-09T01:39:51;96426.16;;;15.82;53.75
30682;BME280;17439;48.092;11.842;2022-07-09T01:42:18;96428.91;;;15.91;53.33
30682;BME280;17439;48.092;11.842;2022-07-09T01:44:47;96428.41;;;15.98;53.49
30682;BME280;17439;48.092;11.842;2022-07-09T01:47:14;96424.88;;;16.06;53.25
30682;BME280;17439;48.092;11.842;2022-07-09T01:49:41;96417.78;;;16.13;53.22
30682;BME280;17439;48.092;11.842;2022-07-09T01:52:08;96414.88;;;16.19;52.88
30682;BME280;17439;48.092;11.842;2022-07-09T01:54:35;96408.91;;;16.25;53.19
30682;BME280;17439;48.092;11.842;2022-07-09T01:57:01;96407.63;;;16.31;52.97
30682;BME280;17439;48.092;11.842;2022-07-09T01:59:28;96403.59;;;16.38;52.64
30682;BME280;17439;48.092;11.842;2022-07-09T02:01:55;96406.16;;;16.43;52.54
30682;BME280;17439;48.092;11.842;2022-07-09T02:04:21;96402.44;;;16.47;52.63
30682;BME280;17439;48.092;11.842;2022-07-09T02:06:48;96402.25;;;16.53;52.82
30682;BME280;17439;48.092;11.842;2022-07-09T02:09:15;96400.81;;;16.55;52.42
30682;BME280;17439;48.092;11.842;2022-07-09T02:11:41;96400.16;;;16.58;52.48
30682;BME280;17439;48.092;11.842;2022-07-09T02:14:08;96392.91;;;16.62;52.45
30682;BME280;17439;48.092;11.842;2022-07-09T02:16:34;96392.59;;;16.64;52.31
30682;BME280;17439;48.092;11.842;2022-07-09T02:19:01;96390.00;;;16.67;52.30
30682;BME280;17439;48.092;11.842;2022-07-09T02:21:28;96392.41;;;16.69;52.30
30682;BME280;17439;48.092;11.842;2022-07-09T02:23:54;96398.34;;;16.71;52.27
30682;BME280;17439;48.092;11.842;2022-07-09T02:26:21;96399.97;;;16.72;52.21
30682;BME280;17439;48.092;11.842;2022-07-09T02:28:47;96403.16;;;16.74;52.04
30682;BME280;17439;48.092;11.842;2022-07-09T02:31:14;96403.16;;;16.74;51.98
30682;BME280;17439;48.092;11.842;2022-07-09T02:33:41;96395.75;;;16.75;51.85
30682;BME280;17439;48.092;11.842;2022-07-09T02:36:08;96394.16;;;16.74;51.72
30682;BME280;17439;48.092;11.842;2022-07-09T02:38:34;96395.75;;;16.75;51.65
30682;BME280;17439;48.092;11.842;2022-07-09T02:41:03;96387.06;;;16.73;51.89
30682;BME280;17439;48.092;11.842;2022-07-09T02:43:30;96391.41;;;16.74;51.70
30682;BME280;17439;48.092;11.842;2022-07-09T02:45:56;96382.38;;;16.73;51.51
30682;BME280;17439;48.092;11.842;2022-07-09T02:48:23;96385.44;;;16.72;51.70
30682;BME280;17439;48.092;11.842;2022-07-09T02:50:50;96388.19;;;16.72;51.71
30682;BME280;17439;48.092;11.842;2022-07-09T02:53:17;96381.59;;;16.73;51.70
30682;BME280;17439;48.092;11.842;2022-07-09T02:55:44;96378.84;;;16.73;51.73
30682;BME280;17439;48.092;11.842;2022-07-09T02:58:12;96378.38;;;16.71;51.43
30682;BME280;17439;48.092;11.842;2022-07-09T03:00:39;96383.53;;;16.72;51.42
30682;BME280;17439;48.092;11.842;2022-07-09T03:03:07;96381.59;;;16.73;51.61
30682;BME280;17439;48.092;11.842;2022-07-09T03:05:34;96372.25;;;16.74;51.26
30682;BME280;17439;48.092;11.842;2022-07-09T03:08:01;96385.63;;;16.75;51.35
30682;BME280;17439;48.092;11.842;2022-07-09T03:10:28;96381.41;;;16.78;51.44
30682;BME280;17439;48.092;11.842;2022-07-09T03:12:55;96384.97;;;16.78;51.31
30682;BME280;17439;48.092;11.842;2022-07-09T03:15:22;96376.44;;;16.80;51.33
30682;BME280;17439;48.092;11.842;2022-07-09T03:17:48;96377.22;;;16.80;51.17
30682;BME280;17439;48.092;11.842;2022-07-09T03:20:15;96380.41;;;16.82;51.21
30682;BME280;17439;48.092;11.842;2022-07-09T03:22:42;96378.16;;;16.84;51.14
30682;BME280;17439;48.092;11.842;2022-07-09T03:25:09;96376.22;;;16.85;51.32
30682;BME280;17439;48.092;11.842;2022-07-09T03:27:35;96373.19;;;16.86;51.33
30682;BME280;17439;48.092;11.842;2022-07-09T03:30:04;96381.09;;;16.88;51.36
30682;BME280;17439;48.092;11.842;2022-07-09T03:32:31;96384.28;;;16.90;51.36
30682;BME280;17439;48.092;11.842;2022-07-09T03:34:57;96385.91;;;16.91;51.27
30682;BME280;17439;48.092;11.842;2022-07-09T03:37:24;96384.75;;;16.92;51.06
30682;BME280;17439;48.092;11.842;2022-07-09T03:39:50;96379.78;;;16.94;51.22
30682;BME280;17439;48.092;11.842;2022-07-09T03:42:17;96378.63;;;16.95;51.28
30682;BME280;17439;48.092;11.842;2022-07-09T03:44:43;96380.25;;;16.96;51.17
30682;BME280;17439;48.092;11.842;2022-07-09T03:47:10;96384.59;;;16.97;51.36
30682;BME280;17439;48.092;11.842;2022-07-09T03:49:37;96385.06;;;16.99;51.34
30682;BME280;17439;48.092;11.842;2022-07-09T03:52:04;96388.25;;;17.01;51.29
30682;BME280;17439;48.092;11.842;2022-07-09T03:54:45;96382.78;;;17.01;51.27
30682;BME280;17439;48.092;11.842;2022-07-09T03:57:12;96396.16;;;17.03;51.13
30682;BME280;17439;48.092;11.842;2022-07-09T03:59:39;96388.41;;;17.05;51.31
30682;BME280;17439;48.092;11.842;2022-07-09T04:02:05;96399.84;;;17.07;51.15
30682;BME280;17439;48.092;11.842;2022-07-09T04:04:38;96394.38;;;17.07;50.95
30682;BME280;17439;48.092;11.842;2022-07-09T04:07:05;96395.63;;;17.10;51.04
30682;BME280;17439;48.092;11.842;2022-07-09T04:09:32;96389.03;;;17.11;50.92
30682;BME280;17439;48.092;11.842;2022-07-09T04:11:58;96396.13;;;17.12;50.92
30682;BME280;17439;48.092;11.842;2022-07-09T04:14:25;96396.91;;;17.12;50.84
30682;BME280;17439;48.092;11.842;2022-07-09T04:16:51;96400.44;;;17.13;50.96
30682;BME280;17439;48.092;11.842;2022-07-09T04:19:18;96406.44;;;17.15;50.95
30682;BME280;17439;48.092;11.842;2022-07-09T04:21:45;96401.75;;;17.15;50.92
30682;BME280;17439;48.092;11.842;2022-07-09T04:24:11;96402.22;;;17.17;50.88
30682;BME280;17439;48.092;11.842;2022-07-09T04:26:38;96401.09;;;17.18;50.81
30682;BME280;17439;48.092;11.842;2022-07-09T04:29:04;96403.16;;;17.21;50.97
30682;BME280;17439;48.092;11.842;2022-07-09T04:31:31;96390.72;;;17.24;50.76
30682;BME280;17439;48.092;11.842;2022-07-09T04:33:58;96396.38;;;17.28;50.87
30682;BME280;17439;48.092;11.842;2022-07-09T04:36:24;96400.84;;;17.32;50.94
30682;BME280;17439;48.092;11.842;2022-07-09T04:38:51;96408.38;;;17.35;50.89
30682;BME280;17439;48.092;11.842;2022-07-09T04:41:18;96406.59;;;17.39;50.86
30682;BME280;17439;48.092;11.842;2022-07-09T04:43:44;96404.00;;;17.43;50.99
30682;BME280;17439;48.092;11.842;2022-07-09T04:46:11;96403.00;;;17.48;50.83
30682;BME280;17439;48.092;11.842;2022-07-09T04:48:37;96408.59;;;17.51;50.80
30682;BME280;17439;48.092;11.842;2022-07-09T04:51:04;96407.63;;;17.56;50.67
30682;BME280;17439;48.092;11.842;2022-07-09T04:53:31;96404.22;;;17.59;50.96
30682;BME280;17439;48.092;11.842;2022-07-09T04:55:57;96404.03;;;17.64;50.94
30682;BME280;17439;48.092;11.842;2022-07-09T04:58:24;96402.22;;;17.68;50.88
30682;BME280;17439;48.092;11.842;2022-07-09T05:00:50;96409.44;;;17.73;50.71
30682;BME280;17439;48.092;11.842;2022-07-09T05:03:17;96400.56;;;17.76;50.67
30682;BME280;17439;48.092;11.842;2022-07-09T05:05:44;96410.19;;;17.82;50.57
30682;BME280;17439;48.092;11.842;2022-07-09T05:08:17;96411.81;;;17.83;50.38
30682;BME280;17439;48.092;11.842;2022-07-09T05:10:44;96406.78;;;17.85;50.47
30682;BME280;17439;48.092;11.842;2022-07-09T05:13:11;96405.31;;;17.88;50.37
30682;BME280;17439;48.092;11.842;2022-07-09T05:15:37;96404.19;;;17.89;50.25
30682;BME280;17439;48.092;11.842;2022-07-09T05:18:04;96408.56;;;17.90;50.40
30682;BME280;17439;48.092;11.842;2022-07-09T05:20:30;96410.13;;;17.91;50.45
30682;BME280;17439;48.092;11.842;2022-07-09T05:22:57;96412.22;;;17.94;50.77
30682;BME280;17439;48.092;11.842;2022-07-09T05:25:24;96417.84;;;17.98;50.83
30682;BME280;17439;48.092;11.842;2022-07-09T05:27:50;96416.38;;;18.00;50.89
30682;BME280;17439;48.092;11.842;2022-07-09T05:30:17;96409.09;;;18.04;51.10
30682;BME280;17439;48.092;11.842;2022-07-09T05:32:45;96418.66;;;17.98;50.50
30682;BME280;17439;48.092;11.842;2022-07-09T05:35:12;96419.16;;;18.12;50.80
30682;BME280;17439;48.092;11.842;2022-07-09T05:37:44;96407.97;;;18.18;50.20
30682;BME280;17439;48.092;11.842;2022-07-09T05:40:12;96416.50;;;18.25;50.81
30682;BME280;17439;48.092;11.842;2022-07-09T05:42:38;96412.72;;;18.29;50.63
30682;BME280;17439;48.092;11.842;2022-07-09T05:45:06;96410.91;;;18.34;50.87
30682;BME280;17439;48.092;11.842;2022-07-09T05:47:33;96416.16;;;18.39;50.60
30682;BME280;17439;48.092;11.842;2022-07-09T05:49:59;96413.25;;;18.44;50.58
30682;BME280;17439;48.092;11.842;2022-07-09T05:52:26;96412.69;;;18.51;50.76
30682;BME280;17439;48.092;11.842;2022-07-09T05:54:53;96412.13;;;18.57;50.50
30682;BME280;17439;48.092;11.842;2022-07-09T05:57:19;96406.06;;;18.64;50.65
30682;BME280;17439;48.092;11.842;2022-07-09T05:59:46;96414.22;;;18.73;50.70
30682;BME280;17439;48.092;11.842;2022-07-09T06:02:13;96402.22;;;18.77;50.59
30682;BME280;17439;48.092;11.842;2022-07-09T06:04:39;96398.94;;;18.84;50.58
30682;BME280;17439;48.092;11.842;2022-07-09T06:07:06;96404.66;;;18.91;50.51
30682;BME280;17439;48.092;11.842;2022-07-09T06:09:33;96404.56;;;19.00;50.40
30682;BME280;17439;48.092;11.842;2022-07-09T06:11:59;96394.97;;;19.06;50.35
30682;BME280;17439;48.092;11.842;2022-07-09T06:14:26;96402.28;;;19.14;50.22
30682;BME280;17439;48.092;11.842;2022-07-09T06:16:53;96397.81;;;19.22;50.10
30682;BME280;17439;48.092;11.842;2022-07-09T06:19:21;96407.44;;;19.28;50.13
30682;BME280;17439;48.092;11.842;2022-07-09T06:21:47;96408.81;;;19.34;50.26
30682;BME280;17439;48.092;11.842;2022-07-09T06:24:14;96401.56;;;19.42;50.13
30682;BME280;17439;48.092;11.842;2022-07-09T06:26:40;96403.28;;;19.47;50.08
30682;BME280;17439;48.092;11.842;2022-07-09T06:29:07;96409.81;;;19.54;49.87
30682;BME280;17439;48.092;11.842;2022-07-09T06:31:34;96413.94;;;19.61;49.84
30682;BME280;17439;48.092;11.842;2022-07-09T06:34:00;96412.44;;;19.63;49.76
30682;BME280;17439;48.092;11.842;2022-07-09T06:36:27;96408.66;;;19.68;49.76
30682;BME280;17439;48.092;11.842;2022-07-09T06:38:53;96416.19;;;19.71;49.74
30682;BME280;17439;48.092;11.842;2022-07-09T06:41:20;96419.06;;;19.74;49.43
30682;BME280;17439;48.092;11.842;2022-07-09T06:43:47;96414.38;;;19.75;49.53
30682;BME280;17439;48.092;11.842;2022-07-09T06:46:13;96414.84;;;19.77;49.69
30682;BME280;17439;48.092;11.842;2022-07-09T06:48:40;96419.22;;;19.78;49.67
30682;BME280;17439;48.092;11.842;2022-07-09T06:51:07;96408.66;;;19.80;49.72
30682;BME280;17439;48.092;11.842;2022-07-09T06:53:34;96407.59;;;19.85;49.62
30682;BME280;17439;48.092;11.842;2022-07-09T06:56:00;96411.28;;;19.89;49.60
30682;BME280;17439;48.092;11.842;2022-07-09T06:58:27;96410.25;;;19.93;49.75
30682;BME280;17439;48.092;11.842;2022-07-09T07:00:53;96407.25;;;19.99;49.71
30682;BME280;17439;48.092;11.842;2022-07-09T07:03:20;96405.03;;;20.04;49.39
30682;BME280;17439;48.092;11.842;2022-07-09T07:05:47;96404.44;;;20.11;49.43
30682;BME280;17439;48.092;11.842;2022-07-09T07:08:13;96409.69;;;20.16;49.33
30682;BME280;17439;48.092;11.842;2022-07-09T07:10:40;96405.56;;;20.22;49.44
30682;BME280;17439;48.092;11.842;2022-07-09T07:13:09;96412.41;;;20.28;48.96
30682;BME280;17439;48.092;11.842;2022-07-09T07:15:35;96405.03;;;20.33;49.01
30682;BME280;17439;48.092;11.842;2022-07-09T07:18:02;96407.56;;;20.38;48.71
30682;BME280;17439;48.092;11.842;2022-07-09T07:20:29;96410.75;;;20.40;48.46
30682;BME280;17439;48.092;11.842;2022-07-09T07:22:55;96408.44;;;20.42;48.69
30682;BME280;17439;48.092;11.842;2022-07-09T07:25:22;96407.75;;;20.45;48.77
30682;BME280;17439;48.092;11.842;2022-07-09T07:27:49;96399.13;;;20.46;48.68
30682;BME280;17439;48.092;11.842;2022-07-09T07:30:15;96406.34;;;20.51;48.57
30682;BME280;17439;48.092;11.842;2022-07-09T07:32:42;96405.28;;;20.56;48.61
30682;BME280;17439;48.092;11.842;2022-07-09T07:35:08;96401.47;;;20.60;48.65
30682;BME280;17439;48.092;11.842;2022-07-09T07:37:35;96397.34;;;20.67;48.82
30682;BME280;17439;48.092;11.842;2022-07-09T07:40:02;96394.75;;;20.74;48.70
30682;BME280;17439;48.092;11.842;2022-07-09T07:42:36;96397.72;;;20.81;48.70
30682;BME280;17439;48.092;11.842;2022-07-09T07:45:03;96397.16;;;20.91;48.58
30682;BME280;17439;48.092;11.842;2022-07-09T07:47:30;96395.84;;;21.01;48.38
30682;BME280;17439;48.092;11.842;2022-07-09T07:49:56;96396.09;;;21.12;48.54
30682;BME280;17439;48.092;11.842;2022-07-09T07:52:23;96388.09;;;21.23;48.43
30682;BME280;17439;48.092;11.842;2022-07-09T07:54:50;96390.28;;;21.33;47.73
30682;BME280;17439;48.092;11.842;2022-07-09T07:57:16;96397.56;;;21.41;47.86
30682;BME280;17439;48.092;11.842;2022-07-09T07:59:43;96390.75;;;21.51;47.69
30682;BME280;17439;48.092;11.842;2022-07-09T08:02:09;96389.41;;;21.61;47.78
30682;BME280;17439;48.092;11.842;2022-07-09T08:04:36;96384.13;;;21.71;47.15
30682;BME280;17439;48.092;11.842;2022-07-09T08:07:03;96382.28;;;21.79;46.79
30682;BME280;17439;48.092;11.842;2022-07-09T08:09:30;96382.47;;;21.86;46.12
30682;BME280;17439;48.092;11.842;2022-07-09T08:11:56;96377.09;;;21.93;46.04
30682;BME280;17439;48.092;11.842;2022-07-09T08:14:23;96377.59;;;21.99;45.95
30682;BME280;17439;48.092;11.842;2022-07-09T08:16:50;96381.69;;;22.05;45.86
30682;BME280;17439;48.092;11.842;2022-07-09T08:19:16;96375.44;;;22.08;45.68
30682;BME280;17439;48.092;11.842;2022-07-09T08:21:43;96381.09;;;22.16;45.76
30682;BME280;17439;48.092;11.842;2022-07-09T08:24:10;96380.34;;;22.19;45.74
30682;BME280;17439;48.092;11.842;2022-07-09T08:26:36;96380.50;;;22.26;45.49
30682;BME280;17439;48.092;11.842;2022-07-09T08:29:03;96378.63;;;22.30;45.06
30682;BME280;17439;48.092;11.842;2022-07-09T08:31:30;96378.28;;;22.32;45.38
30682;BME280;17439;48.092;11.842;2022-07-09T08:33:56;96385.09;;;22.38;45.03
30682;BME280;17439;48.092;11.842;2022-07-09T08:36:23;96375.28;;;22.40;44.92
30682;BME280;17439;48.092;11.842;2022-07-09T08:38:50;96381.66;;;22.44;44.71
30682;BME280;17439;48.092;11.842;2022-07-09T08:41:18;96372.22;;;22.45;44.88
30682;BME280;17439;48.092;11.842;2022-07-09T08:43:52;96376.22;;;22.48;44.84
30682;BME280;17439;48.092;11.842;2022-07-09T08:46:20;96373.16;;;22.53;44.88
30682;BME280;17439;48.092;11.842;2022-07-09T08:48:47;96372.66;;;22.48;45.36
30682;BME280;17439;48.092;11.842;2022-07-09T08:51:13;96371.03;;;22.66;45.01
30682;BME280;17439;48.092;11.842;2022-07-09T08:53:42;96364.44;;;22.74;44.57
30682;BME280;17439;48.092;11.842;2022-07-09T08:56:09;96364.22;;;22.83;44.45
30682;BME280;17439;48.092;11.842;2022-07-09T08:58:40;96360.78;;;22.90;43.08
30682;BME280;17439;48.092;11.842;2022-07-09T09:01:07;96360.47;;;22.95;43.93
30682;BME280;17439;48.092;11.842;2022-07-09T09:03:38;96360.97;;;23.00;43.47
30682;BME280;17439;48.092;11.842;2022-07-09T09:06:09;96351.84;;;23.00;41.07
30682;BME280;17439;48.092;11.842;2022-07-09T09:08:40;96349.47;;;22.98;40.41
30682;BME280;17439;48.092;11.842;2022-07-09T09:11:13;96345.47;;;22.96;41.54
30682;BME280;17439;48.092;11.842;2022-07-09T09:13:44;96335.16;;;22.93;42.15
30682;BME280;17439;48.092;11.842;2022-07-09T09:16:12;96334.28;;;22.89;42.84
30682;BME280;17439;48.092;11.842;2022-07-09T09:18:40;96337.50;;;22.91;42.86
30682;BME280;17439;48.092;11.842;2022-07-09T09:21:08;96326.44;;;22.91;42.99
30682;BME280;17439;48.092;11.842;2022-07-09T09:23:45;96331.97;;;22.91;42.04
30682;BME280;17439;48.092;11.842;2022-07-09T09:26:14;96320.59;;;22.96;42.56
30682;BME280;17439;48.092;11.842;2022-07-09T09:28:45;96325.06;;;23.04;41.98
30682;BME280;17439;48.092;11.842;2022-07-09T09:34:15;96327.66;;;23.16;41.27
30682;BME280;17439;48.092;11.842;2022-07-09T09:36:47;96320.56;;;23.19;41.74
30682;BME280;17439;48.092;11.842;2022-07-09T09:41:44;96314.41;;;23.29;42.25
30682;BME280;17439;48.092;11.842;2022-07-09T09:44:13;96315.31;;;23.37;41.40
30682;BME280;17439;48.092;11.842;2022-07-09T09:46:41;96319.38;;;23.43;41.08
30682;BME280;17439;48.092;11.842;2022-07-09T09:49:09;96313.72;;;23.36;40.44
30682;BME280;17439;48.092;11.842;2022-07-09T09:54:21;96312.47;;;23.60;40.21
30682;BME280;17439;48.092;11.842;2022-07-09T09:56:49;96306.22;;;23.67;39.48
30682;BME280;17439;48.092;11.842;2022-07-09T09:59:16;96306.28;;;23.70;39.34
30682;BME280;17439;48.092;11.842;2022-07-09T10:01:44;96309.88;;;23.75;38.98
30682;BME280;17439;48.092;11.842;2022-07-09T10:04:13;96308.75;;;23.79;38.75
30682;BME280;17439;48.092;11.842;2022-07-09T10:06:41;96292.28;;;23.86;39.22
30682;BME280;17439;48.092;11.842;2022-07-09T10:09:11;96301.47;;;23.94;38.22
30682;BME280;17439;48.092;11.842;2022-07-09T10:11:43;96292.88;;;24.06;37.62
30682;BME280;17439;48.092;11.842;2022-07-09T10:16:52;96297.81;;;24.24;38.19
30682;BME280;17439;48.092;11.842;2022-07-09T10:19:29;96291.22;;;24.36;37.53
30682;BME280;17439;48.092;11.842;2022-07-09T10:21:57;96289.53;;;24.61;33.94
30682;BME280;17439;48.092;11.842;2022-07-09T10:24:28;96286.72;;;24.58;35.25
30682;BME280;17439;48.092;11.842;2022-07-09T10:27:09;96295.94;;;24.73;35.60
30682;BME280;17439;48.092;11.842;2022-07-09T10:29:59;96282.09;;;24.73;35.76
30682;BME280;17439;48.092;11.842;2022-07-09T10:32:30;96280.56;;;24.79;36.57
30682;BME280;17439;48.092;11.842;2022-07-09T10:35:04;96290.13;;;24.89;35.42
30682;BME280;17439;48.092;11.842;2022-07-09T10:37:32;96279.16;;;25.03;36.95
30682;BME280;17439;48.092;11.842;2022-07-09T10:40:19;96282.41;;;25.16;36.33
30682;BME280;17439;48.092;11.842;2022-07-09T10:43:00;96282.91;;;25.29;36.00
30682;BME280;17439;48.092;11.842;2022-07-09T10:48:02;96265.63;;;25.57;34.18
30682;BME280;17439;48.092;11.842;2022-07-09T10:50:32;96267.66;;;25.67;33.98
30682;BME280;17439;48.092;11.842;2022-07-09T10:52:59;96268.88;;;25.74;33.86
30682;BME280;17439;48.092;11.842;2022-07-09T10:55:28;96270.47;;;25.75;34.25
30682;BME280;17439;48.092;11.842;2022-07-09T10:57:55;96261.34;;;25.78;34.35
30682;BME280;17439;48.092;11.842;2022-07-09T11:00:27;96260.97;;;25.83;33.87
30682;BME280;17439;48.092;11.842;2022-07-09T11:05:27;96260.63;;;25.92;33.16
30682;BME280;17439;48.092;11.842;2022-07-09T11:08:04;96261.41;;;25.96;34.01
30682;BME280;17439;48.092;11.842;2022-07-09T11:10:34;96258.28;;;26.01;33.77
30682;BME280;17439;48.092;11.842;2022-07-09T11:13:02;96263.09;;;26.08;32.53
30682;BME280;17439;48.092;11.842;2022-07-09T11:15:30;96257.53;;;26.08;32.67
30682;BME280;17439;48.092;11.842;2022-07-09T11:20:29;96254.72;;;26.00;32.60
30682;BME280;17439;48.092;11.842;2022-07-09T11:22:56;96251.47;;;25.91;33.42
30682;BME280;17439;48.092;11.842;2022-07-09T11:25:24;96254.25;;;25.84;32.40
30682;BME280;17439;48.092;11.842;2022-07-09T11:27:51;96255.81;;;25.74;32.91
30682;BME280;17439;48.092;11.842;2022-07-09T11:30:17;96247.44;;;25.70;33.02
30682;BME280;17439;48.092;11.842;2022-07-09T11:32:44;96247.81;;;25.69;33.46
30682;BME280;17439;48.092;11.842;2022-07-09T11:35:11;96250.22;;;25.70;32.55
30682;BME280;17439;48.092;11.842;2022-07-09T11:37:44;96236.72;;;25.69;32.75
30682;BME280;17439;48.092;11.842;2022-07-09T11:40:16;96247.81;;;25.69;32.67
30682;BME280;17439;48.092;11.842;2022-07-09T11:42:44;96247.44;;;25.70;34.04
30682;BME280;17439;48.092;11.842;2022-07-09T11:45:11;96245.47;;;25.71;33.77
30682;BME280;17439;48.092;11.842;2022-07-09T11:47:39;96241.50;;;25.72;33.83
30682;BME280;17439;48.092;11.842;2022-07-09T11:50:11;96247.03;;;25.72;34.25
30682;BME280;17439;48.092;11.842;2022-07-09T11:52:48;96238.72;;;25.72;34.06
30682;BME280;17439;48.092;11.842;2022-07-09T11:55:17;96239.94;;;25.75;34.25
30682;BME280;17439;48.092;11.842;2022-07-09T11:57:55;96232.41;;;25.79;34.47
30682;BME280;17439;48.092;11.842;2022-07-09T12:00:27;96225.28;;;25.85;34.32
30682;BME280;17439;48.092;11.842;2022-07-09T12:02:54;96231.25;;;25.91;34.29
30682;BME280;17439;48.092;11.842;2022-07-09T12:05:31;96226.91;;;25.93;33.59
30682;BME280;17439;48.092;11.842;2022-07-09T12:08:00;96215.44;;;26.02;33.34
30682;BME280;17439;48.092;11.842;2022-07-09T12:10:29;96217.03;;;26.06;33.47
30682;BME280;17439;48.092;11.842;2022-07-09T12:12:57;96212.69;;;26.09;33.40
30682;BME280;17439;48.092;11.842;2022-07-09T12:15:24;96205.56;;;26.15;33.29
30682;BME280;17439;48.092;11.842;2022-07-09T12:17:53;96210.69;;;26.17;32.77
30682;BME280;17439;48.092;11.842;2022-07-09T12:20:27;96197.22;;;26.15;33.33
30682;BME280;17439;48.092;11.842;2022-07-09T12:22:54;96203.94;;;26.18;32.90
30682;BME280;17439;48.092;11.842;2022-07-09T12:25:21;96193.22;;;26.20;33.28
30682;BME280;17439;48.092;11.842;2022-07-09T12:27:48;96184.91;;;26.27;32.91
30682;BME280;17439;48.092;11.842;2022-07-09T12:30:15;96182.94;;;26.38;32.75
30682;BME280;17439;48.092;11.842;2022-07-09T12:32:42;96181.34;;;26.52;33.47
30682;BME280;17439;48.092;11.842;2022-07-09T12:35:09;96178.19;;;26.75;31.17
30682;BME280;17439;48.092;11.842;2022-07-09T12:37:37;96172.59;;;26.89;31.95
30682;BME280;17439;48.092;11.842;2022-07-09T12:40:05;96173.34;;;27.04;32.14
30682;BME280;17439;48.092;11.842;2022-07-09T12:42:32;96171.72;;;27.21;30.83
30682;BME280;17439;48.092;11.842;2022-07-09T12:44:59;96168.91;;;27.28;30.64
30682;BME280;17439;48.092;11.842;2022-07-09T12:47:28;96169.31;;;27.34;30.45
30682;BME280;17439;48.092;11.842;2022-07-09T12:49:55;96164.53;;;27.38;30.19
30682;BME280;17439;48.092;11.842;2022-07-09T12:52:22;96162.50;;;27.42;30.48
30682;BME280;17439;48.092;11.842;2022-07-09T12:54:48;96150.56;;;27.45;30.89
30682;BME280;17439;48.092;11.842;2022-07-09T12:57:15;96151.75;;;27.51;31.02
30682;BME280;17439;48.092;11.842;2022-07-09T12:59:42;96152.09;;;27.61;31.55
30682;BME280;17439;48.092;11.842;2022-07-09T13:02:09;96142.50;;;27.69;31.43
30682;BME280;17439;48.092;11.842;2022-07-09T13:04:36;96139.69;;;27.76;31.89
30682;BME280;17439;48.092;11.842;2022-07-09T13:07:03;96137.63;;;27.87;31.30
30682;BME280;17439;48.092;11.842;2022-07-09T13:09:30;96130.81;;;27.96;31.31
30682;BME280;17439;48.092;11.842;2022-07-09T13:11:56;96123.25;;;28.00;31.26